sensor_id;sensor_type;location;lat;lon;timestamp;pressure;altitude;pressure_sealevel;temperature;humidity
58385;BME280;44185;47.844;8.966;2023-10-19T00:00:44;94824.38;;;7.34;100.00
58385;BME280;44185;47.844;8.966;2023-10-19T00:03:10;94832.00;;;7.37;100.00
58385;BME280;44185;47.844;8.966;2023-10-19T00:05:36;94822.97;;;7.40;100.00
58385;BME280;44185;47.844;8.966;2023-10-19T00:08:05;94811.59;;;7.39;100.00
58385;BME280;44185;47.844;8.966;2023-10-19T00:10:31;94794.53;;;7.43;100.00
58385;BME280;44185;47.844;8.966;2023-10-19T00:12:56;94785.97;;;7.41;100.00
58385;BME280;44185;47.844;8.966;2023-10-19T00:15:22;94778.75;;;7.43;100.00
58385;BME280;44185;47.844;8.966;2023-10-19T00:17:47;94788.81;;;7.30;100.00
58385;BME280;44185;47.844;8.966;2023-10-19T00:20:13;94787.84;;;7.31;100.00
58385;BME280;44185;47.844;8.966;2023-10-19T00:22:38;94793.09;;;7.31;100.00
58385;BME280;44185;47.844;8.966;2023-10-19T00:25:06;94793.53;;;7.26;100.00
58385;BME280;44185;47.844;8.966;2023-10-19T00:27:31;94793.53;;;7.26;100.00
58385;BME280;44185;47.844;8.966;2023-10-19T00:29:56;94785.94;;;7.23;100.00
58385;BME280;44185;47.844;8.966;2023-10-19T00:32:22;94777.88;;;7.25;100.00
58385;BME280;44185;47.844;8.966;2023-10-19T00:34:47;94773.47;;;7.25;100.00
58385;BME280;44185;47.844;8.966;2023-10-19T00:37:13;94782.34;;;7.24;100.00
58385;BME280;44185;47.844;8.966;2023-10-19T00:39:38;94787.84;;;7.31;100.00
58385;BME280;44185;47.844;8.966;2023-10-19T00:42:05;94776.72;;;7.37;100.00
58385;BME280;44185;47.844;8.966;2023-10-19T00:44:30;94778.59;;;7.27;100.00
58385;BME280;44185;47.844;8.966;2023-10-19T00:46:56;94772.59;;;7.34;100.00
58385;BME280;44185;47.844;8.966;2023-10-19T00:49:21;94778.13;;;7.31;100.00
58385;BME280;44185;47.844;8.966;2023-10-19T00:51:50;94785.50;;;7.28;100.00
58385;BME280;44185;47.844;8.966;2023-10-19T00:54:19;94783.56;;;7.30;100.00
58385;BME280;44185;47.844;8.966;2023-10-19T00:56:46;94772.59;;;7.34;100.00
58385;BME280;44185;47.844;8.966;2023-10-19T00:59:16;94772.59;;;7.34;100.00
58385;BME280;44185;47.844;8.966;2023-10-19T01:01:42;94769.94;;;7.34;100.00
58385;BME280;44185;47.844;8.966;2023-10-19T01:04:08;94770.16;;;7.41;100.00
58385;BME280;44185;47.844;8.966;2023-10-19T01:06:33;94771.69;;;7.44;100.00
58385;BME280;44185;47.844;8.966;2023-10-19T01:08:59;94762.53;;;7.48;100.00
58385;BME280;44185;47.844;8.966;2023-10-19T01:11:24;94747.53;;;7.49;100.00
58385;BME280;44185;47.844;8.966;2023-10-19T01:13:50;94738.66;;;7.50;100.00
58385;BME280;44185;47.844;8.966;2023-10-19T01:16:17;94724.00;;;7.47;100.00
58385;BME280;44185;47.844;8.966;2023-10-19T01:18:43;94719.56;;;7.48;100.00
58385;BME280;44185;47.844;8.966;2023-10-19T01:21:08;94709.88;;;7.48;100.00
58385;BME280;44185;47.844;8.966;2023-10-19T01:23:37;94719.50;;;7.57;100.00
58385;BME280;44185;47.844;8.966;2023-10-19T01:26:02;94711.13;;;7.62;100.00
58385;BME280;44185;47.844;8.966;2023-10-19T01:28:30;94704.66;;;7.56;100.00
58385;BME280;44185;47.844;8.966;2023-10-19T01:30:56;94707.28;;;7.56;100.00
58385;BME280;44185;47.844;8.966;2023-10-19T01:33:22;94707.25;;;7.48;100.00
58385;BME280;44185;47.844;8.966;2023-10-19T01:35:47;94715.34;;;7.55;100.00
58385;BME280;44185;47.844;8.966;2023-10-19T01:38:13;94725.50;;;7.50;100.00
58385;BME280;44185;47.844;8.966;2023-10-19T01:40:39;94722.88;;;7.31;100.00
58385;BME280;44185;47.844;8.966;2023-10-19T01:43:05;94726.09;;;7.25;100.00
58385;BME280;44185;47.844;8.966;2023-10-19T01:45:31;94714.38;;;7.19;100.00
58385;BME280;44185;47.844;8.966;2023-10-19T01:47:56;94711.22;;;7.16;100.00
58385;BME280;44185;47.844;8.966;2023-10-19T01:50:21;94715.19;;;7.20;100.00
58385;BME280;44185;47.844;8.966;2023-10-19T01:52:47;94715.56;;;7.25;100.00
58385;BME280;44185;47.844;8.966;2023-10-19T01:55:13;94706.13;;;7.32;100.00
58385;BME280;44185;47.844;8.966;2023-10-19T01:57:39;94710.69;;;7.30;100.00
58385;BME280;44185;47.844;8.966;2023-10-19T02:00:06;94700.03;;;7.32;100.00
58385;BME280;44185;47.844;8.966;2023-10-19T02:02:32;94687.38;;;7.17;100.00
58385;BME280;44185;47.844;8.966;2023-10-19T02:04:58;94690.16;;;7.16;100.00
58385;BME280;44185;47.844;8.966;2023-10-19T02:07:23;94700.03;;;7.14;100.00
58385;BME280;44185;47.844;8.966;2023-10-19T02:09:48;94682.88;;;7.28;100.00
58385;BME280;44185;47.844;8.966;2023-10-19T02:12:14;94670.84;;;7.25;100.00
58385;BME280;44185;47.844;8.966;2023-10-19T02:14:41;94669.13;;;7.16;100.00
58385;BME280;44185;47.844;8.966;2023-10-19T02:17:06;94683.56;;;7.30;100.00
58385;BME280;44185;47.844;8.966;2023-10-19T02:19:32;94697.22;;;7.33;100.00
58385;BME280;44185;47.844;8.966;2023-10-19T02:21:59;94698.75;;;7.36;100.00
58385;BME280;44185;47.844;8.966;2023-10-19T02:24:25;94709.72;;;7.31;100.00
58385;BME280;44185;47.844;8.966;2023-10-19T02:26:52;94690.75;;;7.28;100.00
58385;BME280;44185;47.844;8.966;2023-10-19T02:29:18;94695.97;;;7.38;100.00
58385;BME280;44185;47.844;8.966;2023-10-19T02:31:45;94687.75;;;7.41;100.00
58385;BME280;44185;47.844;8.966;2023-10-19T02:34:12;94686.31;;;7.47;100.00
58385;BME280;44185;47.844;8.966;2023-10-19T02:36:38;94690.16;;;7.52;100.00
58385;BME280;44185;47.844;8.966;2023-10-19T02:39:05;94670.91;;;7.52;100.00
58385;BME280;44185;47.844;8.966;2023-10-19T02:41:31;94653.84;;;7.56;100.00
58385;BME280;44185;47.844;8.966;2023-10-19T02:43:56;94658.03;;;7.49;100.00
58385;BME280;44185;47.844;8.966;2023-10-19T02:46:22;94664.22;;;7.39;100.00
58385;BME280;44185;47.844;8.966;2023-10-19T02:48:48;94644.75;;;7.50;100.00
58385;BME280;44185;47.844;8.966;2023-10-19T02:51:14;94642.31;;;7.57;100.00
58385;BME280;44185;47.844;8.966;2023-10-19T02:53:40;94636.84;;;7.50;100.00
58385;BME280;44185;47.844;8.966;2023-10-19T02:56:12;94628.94;;;7.50;100.00
58385;BME280;44185;47.844;8.966;2023-10-19T02:58:41;94612.84;;;7.53;100.00
58385;BME280;44185;47.844;8.966;2023-10-19T03:01:12;94609.03;;;7.48;100.00
58385;BME280;44185;47.844;8.966;2023-10-19T03:03:37;94612.78;;;7.45;100.00
58385;BME280;44185;47.844;8.966;2023-10-19T03:06:04;94601.28;;;7.46;100.00
58385;BME280;44185;47.844;8.966;2023-10-19T03:08:30;94614.13;;;7.49;100.00
58385;BME280;44185;47.844;8.966;2023-10-19T03:10:55;94611.22;;;7.34;100.00
58385;BME280;44185;47.844;8.966;2023-10-19T03:13:21;94630.41;;;7.26;100.00
58385;BME280;44185;47.844;8.966;2023-10-19T03:15:46;94612.91;;;7.35;100.00
58385;BME280;44185;47.844;8.966;2023-10-19T03:18:11;94609.06;;;7.29;100.00
58385;BME280;44185;47.844;8.966;2023-10-19T03:20:37;94598.81;;;7.44;100.00
58385;BME280;44185;47.844;8.966;2023-10-19T03:23:04;94588.44;;;7.43;100.00
58385;BME280;44185;47.844;8.966;2023-10-19T03:25:30;94579.72;;;7.42;100.00
58385;BME280;44185;47.844;8.966;2023-10-19T03:27:55;94590.00;;;7.36;100.00
58385;BME280;44185;47.844;8.966;2023-10-19T03:30:21;94609.25;;;7.36;100.00
58385;BME280;44185;47.844;8.966;2023-10-19T03:32:46;94612.72;;;7.37;100.00
58385;BME280;44185;47.844;8.966;2023-10-19T03:35:12;94622.06;;;7.31;100.00
58385;BME280;44185;47.844;8.966;2023-10-19T03:37:37;94616.19;;;7.37;100.00
58385;BME280;44185;47.844;8.966;2023-10-19T03:40:06;94612.94;;;7.43;100.00
58385;BME280;44185;47.844;8.966;2023-10-19T03:42:32;94609.78;;;7.40;100.00
58385;BME280;44185;47.844;8.966;2023-10-19T03:44:57;94620.31;;;7.40;100.00
58385;BME280;44185;47.844;8.966;2023-10-19T03:47:23;94602.72;;;7.40;100.00
58385;BME280;44185;47.844;8.966;2023-10-19T03:49:48;94598.28;;;7.41;100.00
58385;BME280;44185;47.844;8.966;2023-10-19T03:52:14;94594.31;;;7.37;100.00
58385;BME280;44185;47.844;8.966;2023-10-19T03:54:40;94605.44;;;7.30;100.00
58385;BME280;44185;47.844;8.966;2023-10-19T03:57:07;94600.09;;;7.22;100.00
58385;BME280;44185;47.844;8.966;2023-10-19T03:59:33;94612.22;;;7.15;100.00
58385;BME280;44185;47.844;8.966;2023-10-19T04:01:58;94610.25;;;7.17;100.00
58385;BME280;44185;47.844;8.966;2023-10-19T04:04:24;94611.38;;;7.14;100.00
58385;BME280;44185;47.844;8.966;2023-10-19T04:06:49;94608.91;;;7.12;100.00
58385;BME280;44185;47.844;8.966;2023-10-19T04:09:14;94604.03;;;7.18;100.00
58385;BME280;44185;47.844;8.966;2023-10-19T04:11:40;94604.84;;;7.18;100.00
58385;BME280;44185;47.844;8.966;2023-10-19T04:14:07;94609.13;;;7.19;100.00
58385;BME280;44185;47.844;8.966;2023-10-19T04:16:32;94618.97;;;7.17;100.00
58385;BME280;44185;47.844;8.966;2023-10-19T04:18:58;94609.09;;;7.11;100.00
58385;BME280;44185;47.844;8.966;2023-10-19T04:21:23;94596.59;;;7.13;100.00
58385;BME280;44185;47.844;8.966;2023-10-19T04:23:48;94595.84;;;7.21;100.00
58385;BME280;44185;47.844;8.966;2023-10-19T04:26:14;94580.13;;;7.29;100.00
58385;BME280;44185;47.844;8.966;2023-10-19T04:28:41;94563.19;;;7.32;100.00
58385;BME280;44185;47.844;8.966;2023-10-19T04:31:07;94566.78;;;7.31;100.00
58385;BME280;44185;47.844;8.966;2023-10-19T04:33:33;94574.94;;;7.19;100.00
58385;BME280;44185;47.844;8.966;2023-10-19T04:35:58;94576.97;;;7.07;100.00
58385;BME280;44185;47.844;8.966;2023-10-19T04:38:24;94566.16;;;7.10;100.00
58385;BME280;44185;47.844;8.966;2023-10-19T04:40:49;94560.72;;;7.12;100.00
58385;BME280;44185;47.844;8.966;2023-10-19T04:43:15;94566.00;;;7.12;100.00
58385;BME280;44185;47.844;8.966;2023-10-19T04:45:40;94573.88;;;7.12;100.00
58385;BME280;44185;47.844;8.966;2023-10-19T04:48:07;94581.84;;;7.20;100.00
58385;BME280;44185;47.844;8.966;2023-10-19T04:50:33;94573.34;;;7.27;100.00
58385;BME280;44185;47.844;8.966;2023-10-19T04:52:58;94568.09;;;7.27;100.00
58385;BME280;44185;47.844;8.966;2023-10-19T04:55:24;94561.00;;;7.27;100.00
58385;BME280;44185;47.844;8.966;2023-10-19T04:57:49;94572.81;;;7.23;100.00
58385;BME280;44185;47.844;8.966;2023-10-19T05:00:15;94571.09;;;7.32;100.00
58385;BME280;44185;47.844;8.966;2023-10-19T05:02:41;94566.44;;;7.26;100.00
58385;BME280;44185;47.844;8.966;2023-10-19T05:05:08;94572.22;;;7.29;100.00
58385;BME280;44185;47.844;8.966;2023-10-19T05:07:33;94561.69;;;7.29;100.00
58385;BME280;44185;47.844;8.966;2023-10-19T05:09:59;94555.59;;;7.29;100.00
58385;BME280;44185;47.844;8.966;2023-10-19T05:12:24;94546.88;;;7.28;100.00
58385;BME280;44185;47.844;8.966;2023-10-19T05:14:50;94557.41;;;7.28;100.00
58385;BME280;44185;47.844;8.966;2023-10-19T05:17:16;94554.16;;;7.34;100.00
58385;BME280;44185;47.844;8.966;2023-10-19T05:19:41;94551.59;;;7.43;100.00
58385;BME280;44185;47.844;8.966;2023-10-19T05:22:08;94549.94;;;7.42;100.00
58385;BME280;44185;47.844;8.966;2023-10-19T05:24:34;94546.63;;;7.40;100.00
58385;BME280;44185;47.844;8.966;2023-10-19T05:27:00;94549.09;;;7.41;100.00
58385;BME280;44185;47.844;8.966;2023-10-19T05:29:26;94555.03;;;7.43;100.00
58385;BME280;44185;47.844;8.966;2023-10-19T05:31:53;94547.09;;;7.35;100.00
58385;BME280;44185;47.844;8.966;2023-10-19T05:34:19;94543.88;;;7.23;100.00
58385;BME280;44185;47.844;8.966;2023-10-19T05:36:44;94542.03;;;7.15;100.00
58385;BME280;44185;47.844;8.966;2023-10-19T05:39:11;94537.97;;;7.21;100.00
58385;BME280;44185;47.844;8.966;2023-10-19T05:41:36;94540.78;;;7.28;100.00
58385;BME280;44185;47.844;8.966;2023-10-19T05:44:02;94529.19;;;7.39;100.00
58385;BME280;44185;47.844;8.966;2023-10-19T05:46:28;94529.41;;;7.45;100.00
58385;BME280;44185;47.844;8.966;2023-10-19T05:48:53;94529.91;;;7.49;100.00
58385;BME280;44185;47.844;8.966;2023-10-19T05:51:19;94524.34;;;7.52;100.00
58385;BME280;44185;47.844;8.966;2023-10-19T05:53:44;94520.56;;;7.55;100.00
58385;BME280;44185;47.844;8.966;2023-10-19T05:56:11;94517.44;;;7.60;100.00
58385;BME280;44185;47.844;8.966;2023-10-19T05:58:37;94520.09;;;7.60;100.00
58385;BME280;44185;47.844;8.966;2023-10-19T06:01:02;94512.19;;;7.60;100.00
58385;BME280;44185;47.844;8.966;2023-10-19T06:03:28;94508.22;;;7.55;100.00
58385;BME280;44185;47.844;8.966;2023-10-19T06:05:53;94509.84;;;7.48;100.00
58385;BME280;44185;47.844;8.966;2023-10-19T06:08:19;94513.13;;;7.50;100.00
58385;BME280;44185;47.844;8.966;2023-10-19T06:10:50;94504.59;;;7.56;100.00
58385;BME280;44185;47.844;8.966;2023-10-19T06:13:17;94509.31;;;7.44;100.00
58385;BME280;44185;47.844;8.966;2023-10-19T06:15:43;94506.31;;;7.39;100.00
58385;BME280;44185;47.844;8.966;2023-10-19T06:18:08;94505.00;;;7.35;100.00
58385;BME280;44185;47.844;8.966;2023-10-19T06:20:34;94509.78;;;7.40;100.00
58385;BME280;44185;47.844;8.966;2023-10-19T06:22:59;94503.53;;;7.41;100.00
58385;BME280;44185;47.844;8.966;2023-10-19T06:25:25;94503.41;;;7.42;100.00
58385;BME280;44185;47.844;8.966;2023-10-19T06:27:52;94493.34;;;7.46;100.00
58385;BME280;44185;47.844;8.966;2023-10-19T06:30:19;94493.06;;;7.49;100.00
58385;BME280;44185;47.844;8.966;2023-10-19T06:32:49;94500.81;;;7.51;100.00
58385;BME280;44185;47.844;8.966;2023-10-19T06:35:14;94494.53;;;7.52;100.00
58385;BME280;44185;47.844;8.966;2023-10-19T06:37:40;94493.63;;;7.61;100.00
58385;BME280;44185;47.844;8.966;2023-10-19T06:40:06;94487.66;;;7.59;100.00
58385;BME280;44185;47.844;8.966;2023-10-19T06:42:32;94487.31;;;7.54;100.00
58385;BME280;44185;47.844;8.966;2023-10-19T06:44:57;94492.56;;;7.54;100.00
58385;BME280;44185;47.844;8.966;2023-10-19T06:47:24;94477.81;;;7.61;100.00
58385;BME280;44185;47.844;8.966;2023-10-19T06:49:50;94474.09;;;7.72;100.00
58385;BME280;44185;47.844;8.966;2023-10-19T06:52:15;94487.25;;;7.81;100.00
58385;BME280;44185;47.844;8.966;2023-10-19T06:54:41;94482.69;;;7.91;100.00
58385;BME280;44185;47.844;8.966;2023-10-19T06:57:06;94478.91;;;7.94;100.00
58385;BME280;44185;47.844;8.966;2023-10-19T06:59:32;94486.84;;;8.02;100.00
58385;BME280;44185;47.844;8.966;2023-10-19T07:01:58;94481.25;;;8.05;100.00
58385;BME280;44185;47.844;8.966;2023-10-19T07:04:24;94483.59;;;8.08;100.00
58385;BME280;44185;47.844;8.966;2023-10-19T07:06:50;94488.22;;;8.15;100.00
58385;BME280;44185;47.844;8.966;2023-10-19T07:09:15;94496.63;;;8.18;100.00
58385;BME280;44185;47.844;8.966;2023-10-19T07:11:41;94499.56;;;8.15;100.00
58385;BME280;44185;47.844;8.966;2023-10-19T07:14:06;94503.22;;;8.22;100.00
58385;BME280;44185;47.844;8.966;2023-10-19T07:16:32;94498.94;;;8.21;100.00
58385;BME280;44185;47.844;8.966;2023-10-19T07:18:58;94497.97;;;8.22;100.00
58385;BME280;44185;47.844;8.966;2023-10-19T07:21:24;94492.03;;;8.29;100.00
58385;BME280;44185;47.844;8.966;2023-10-19T07:23:50;94495.78;;;8.18;100.00
58385;BME280;44185;47.844;8.966;2023-10-19T07:26:15;94496.47;;;8.20;100.00
58385;BME280;44185;47.844;8.966;2023-10-19T07:28:41;94487.25;;;8.24;100.00
58385;BME280;44185;47.844;8.966;2023-10-19T07:31:06;94486.25;;;8.33;100.00
58385;BME280;44185;47.844;8.966;2023-10-19T07:33:32;94489.72;;;8.34;100.00
58385;BME280;44185;47.844;8.966;2023-10-19T07:35:57;94481.31;;;8.39;100.00
58385;BME280;44185;47.844;8.966;2023-10-19T07:38:24;94471.28;;;8.34;100.00
58385;BME280;44185;47.844;8.966;2023-10-19T07:40:51;94478.03;;;8.37;100.00
58385;BME280;44185;47.844;8.966;2023-10-19T07:43:17;94476.56;;;8.42;100.00
58385;BME280;44185;47.844;8.966;2023-10-19T07:45:42;94470.97;;;8.37;100.00
58385;BME280;44185;47.844;8.966;2023-10-19T07:48:08;94464.22;;;8.43;100.00
58385;BME280;44185;47.844;8.966;2023-10-19T07:50:34;94473.59;;;8.37;100.00
58385;BME280;44185;47.844;8.966;2023-10-19T07:53:00;94472.75;;;8.37;100.00
58385;BME280;44185;47.844;8.966;2023-10-19T07:55:27;94469.44;;;8.26;100.00
58385;BME280;44185;47.844;8.966;2023-10-19T07:57:52;94467.66;;;8.27;100.00
58385;BME280;44185;47.844;8.966;2023-10-19T08:00:19;94475.56;;;8.27;100.00
58385;BME280;44185;47.844;8.966;2023-10-19T08:02:45;94468.16;;;8.30;100.00
58385;BME280;44185;47.844;8.966;2023-10-19T08:05:10;94470.78;;;8.30;100.00
58385;BME280;44185;47.844;8.966;2023-10-19T08:07:36;94460.25;;;8.39;100.00
58385;BME280;44185;47.844;8.966;2023-10-19T08:10:02;94461.72;;;8.41;100.00
58385;BME280;44185;47.844;8.966;2023-10-19T08:12:30;94455.50;;;8.51;100.00
58385;BME280;44185;47.844;8.966;2023-10-19T08:14:56;94465.75;;;8.62;100.00
58385;BME280;44185;47.844;8.966;2023-10-19T08:17:21;94462.63;;;8.75;100.00
58385;BME280;44185;47.844;8.966;2023-10-19T08:19:47;94460.13;;;8.82;100.00
58385;BME280;44185;47.844;8.966;2023-10-19T08:22:13;94458.66;;;8.79;100.00
58385;BME280;44185;47.844;8.966;2023-10-19T08:24:38;94461.28;;;8.88;100.00
58385;BME280;44185;47.844;8.966;2023-10-19T08:27:04;94456.84;;;8.97;100.00
58385;BME280;44185;47.844;8.966;2023-10-19T08:29:31;94454.88;;;8.90;100.00
58385;BME280;44185;47.844;8.966;2023-10-19T08:31:56;94456.66;;;8.82;100.00
58385;BME280;44185;47.844;8.966;2023-10-19T08:34:21;94462.28;;;8.87;100.00
58385;BME280;44185;47.844;8.966;2023-10-19T08:36:49;94451.91;;;8.94;100.00
58385;BME280;44185;47.844;8.966;2023-10-19T08:39:17;94452.88;;;9.01;100.00
58385;BME280;44185;47.844;8.966;2023-10-19T08:41:43;94454.84;;;8.99;100.00
58385;BME280;44185;47.844;8.966;2023-10-19T08:44:08;94458.13;;;9.09;100.00
58385;BME280;44185;47.844;8.966;2023-10-19T08:46:35;94451.53;;;9.05;100.00
58385;BME280;44185;47.844;8.966;2023-10-19T08:49:01;94432.53;;;9.18;100.00
58385;BME280;44185;47.844;8.966;2023-10-19T08:51:27;94425.44;;;9.19;100.00
58385;BME280;44185;47.844;8.966;2023-10-19T08:53:53;94426.28;;;9.19;100.00
58385;BME280;44185;47.844;8.966;2023-10-19T08:56:19;94420.31;;;9.34;100.00
58385;BME280;44185;47.844;8.966;2023-10-19T08:58:44;94427.41;;;9.33;100.00
58385;BME280;44185;47.844;8.966;2023-10-19T09:01:10;94421.63;;;9.30;100.00
58385;BME280;44185;47.844;8.966;2023-10-19T09:03:37;94421.63;;;9.30;100.00
58385;BME280;44185;47.844;8.966;2023-10-19T09:06:04;94429.75;;;9.28;100.00
58385;BME280;44185;47.844;8.966;2023-10-19T09:08:29;94426.41;;;9.34;100.00
58385;BME280;44185;47.844;8.966;2023-10-19T09:10:55;94438.25;;;9.47;100.00
58385;BME280;44185;47.844;8.966;2023-10-19T09:13:20;94440.06;;;9.47;100.00
58385;BME280;44185;47.844;8.966;2023-10-19T09:15:47;94430.78;;;9.59;100.00
58385;BME280;44185;47.844;8.966;2023-10-19T09:18:13;94431.75;;;9.66;100.00
58385;BME280;44185;47.844;8.966;2023-10-19T09:20:41;94431.94;;;9.56;100.00
58385;BME280;44185;47.844;8.966;2023-10-19T09:23:07;94424.50;;;9.68;100.00
58385;BME280;44185;47.844;8.966;2023-10-19T09:25:32;94436.34;;;9.73;100.00
58385;BME280;44185;47.844;8.966;2023-10-19T09:27:58;94432.88;;;9.72;100.00
58385;BME280;44185;47.844;8.966;2023-10-19T09:30:24;94439.59;;;9.83;100.00
58385;BME280;44185;47.844;8.966;2023-10-19T09:32:50;94447.16;;;9.95;100.00
58385;BME280;44185;47.844;8.966;2023-10-19T09:35:18;94435.09;;;9.92;100.00
58385;BME280;44185;47.844;8.966;2023-10-19T09:37:46;94433.25;;;9.93;100.00
58385;BME280;44185;47.844;8.966;2023-10-19T09:40:12;94442.34;;;9.90;100.00
58385;BME280;44185;47.844;8.966;2023-10-19T09:42:38;94446.81;;;9.98;100.00
58385;BME280;44185;47.844;8.966;2023-10-19T09:45:08;94434.25;;;10.00;100.00
58385;BME280;44185;47.844;8.966;2023-10-19T09:47:35;94431.03;;;10.13;100.00
58385;BME280;44185;47.844;8.966;2023-10-19T09:50:02;94418.84;;;10.27;100.00
58385;BME280;44185;47.844;8.966;2023-10-19T09:52:28;94408.94;;;10.29;100.00
58385;BME280;44185;47.844;8.966;2023-10-19T09:55:00;94403.97;;;10.34;100.00
58385;BME280;44185;47.844;8.966;2023-10-19T09:57:34;94392.50;;;10.42;100.00
58385;BME280;44185;47.844;8.966;2023-10-19T10:00:03;94382.22;;;10.48;100.00
58385;BME280;44185;47.844;8.966;2023-10-19T10:02:29;94366.13;;;10.57;100.00
58385;BME280;44185;47.844;8.966;2023-10-19T10:04:55;94368.97;;;10.56;100.00
58385;BME280;44185;47.844;8.966;2023-10-19T10:07:20;94368.84;;;10.64;100.00
58385;BME280;44185;47.844;8.966;2023-10-19T10:09:48;94369.13;;;10.54;100.00
58385;BME280;44185;47.844;8.966;2023-10-19T10:12:20;94364.34;;;10.50;100.00
58385;BME280;44185;47.844;8.966;2023-10-19T10:14:56;94375.72;;;10.59;100.00
58385;BME280;44185;47.844;8.966;2023-10-19T10:17:22;94390.78;;;10.50;100.00
58385;BME280;44185;47.844;8.966;2023-10-19T10:19:47;94394.13;;;10.67;100.00
58385;BME280;44185;47.844;8.966;2023-10-19T10:22:13;94380.09;;;10.66;100.00
58385;BME280;44185;47.844;8.966;2023-10-19T10:24:40;94375.25;;;10.70;100.00
58385;BME280;44185;47.844;8.966;2023-10-19T10:27:06;94366.63;;;10.92;100.00
58385;BME280;44185;47.844;8.966;2023-10-19T10:29:32;94368.47;;;11.06;100.00
58385;BME280;44185;47.844;8.966;2023-10-19T10:31:58;94357.63;;;11.16;100.00
58385;BME280;44185;47.844;8.966;2023-10-19T10:34:42;94364.00;;;11.22;100.00
58385;BME280;44185;47.844;8.966;2023-10-19T10:37:09;94357.44;;;11.33;100.00
58385;BME280;44185;47.844;8.966;2023-10-19T10:39:35;94356.28;;;11.57;100.00
58385;BME280;44185;47.844;8.966;2023-10-19T10:42:02;94356.75;;;11.61;100.00
58385;BME280;44185;47.844;8.966;2023-10-19T10:44:40;94348.50;;;11.71;100.00
58385;BME280;44185;47.844;8.966;2023-10-19T10:47:07;94346.13;;;11.76;100.00
58385;BME280;44185;47.844;8.966;2023-10-19T10:49:33;94342.19;;;11.72;100.00
58385;BME280;44185;47.844;8.966;2023-10-19T10:51:58;94342.13;;;11.65;100.00
58385;BME280;44185;47.844;8.966;2023-10-19T10:54:23;94336.19;;;11.63;100.00
58385;BME280;44185;47.844;8.966;2023-10-19T10:56:49;94343.81;;;11.73;100.00
58385;BME280;44185;47.844;8.966;2023-10-19T10:59:15;94337.81;;;12.01;100.00
58385;BME280;44185;47.844;8.966;2023-10-19T11:01:42;94345.53;;;12.18;100.00
58385;BME280;44185;47.844;8.966;2023-10-19T11:04:09;94343.78;;;12.26;100.00
58385;BME280;44185;47.844;8.966;2023-10-19T11:06:47;94339.84;;;12.43;100.00
58385;BME280;44185;47.844;8.966;2023-10-19T11:09:12;94333.09;;;12.19;100.00
58385;BME280;44185;47.844;8.966;2023-10-19T11:11:38;94315.00;;;12.44;100.00
58385;BME280;44185;47.844;8.966;2023-10-19T11:14:09;94305.84;;;12.54;100.00
58385;BME280;44185;47.844;8.966;2023-10-19T11:16:34;94303.69;;;12.64;100.00
58385;BME280;44185;47.844;8.966;2023-10-19T11:19:01;94306.78;;;12.68;100.00
58385;BME280;44185;47.844;8.966;2023-10-19T11:21:26;94300.31;;;12.77;100.00
58385;BME280;44185;47.844;8.966;2023-10-19T11:23:52;94295.63;;;12.79;100.00
58385;BME280;44185;47.844;8.966;2023-10-19T11:26:20;94290.16;;;12.88;100.00
58385;BME280;44185;47.844;8.966;2023-10-19T11:28:46;94281.56;;;13.21;100.00
58385;BME280;44185;47.844;8.966;2023-10-19T11:31:16;94277.72;;;13.31;100.00
58385;BME280;44185;47.844;8.966;2023-10-19T11:33:43;94260.94;;;13.30;100.00
58385;BME280;44185;47.844;8.966;2023-10-19T11:36:10;94259.72;;;13.26;100.00
58385;BME280;44185;47.844;8.966;2023-10-19T11:38:36;94254.34;;;13.12;100.00
58385;BME280;44185;47.844;8.966;2023-10-19T11:41:01;94254.56;;;13.18;100.00
58385;BME280;44185;47.844;8.966;2023-10-19T11:43:27;94260.31;;;13.21;100.00
58385;BME280;44185;47.844;8.966;2023-10-19T11:45:52;94262.53;;;13.11;100.00
58385;BME280;44185;47.844;8.966;2023-10-19T11:48:18;94267.56;;;12.99;100.00
58385;BME280;44185;47.844;8.966;2023-10-19T11:50:43;94262.63;;;12.96;100.00
58385;BME280;44185;47.844;8.966;2023-10-19T11:53:10;94261.63;;;12.97;100.00
58385;BME280;44185;47.844;8.966;2023-10-19T11:55:35;94250.19;;;12.96;100.00
58385;BME280;44185;47.844;8.966;2023-10-19T11:58:01;94240.78;;;12.94;100.00
58385;BME280;44185;47.844;8.966;2023-10-19T12:00:26;94246.53;;;12.97;100.00
58385;BME280;44185;47.844;8.966;2023-10-19T12:02:52;94252.91;;;13.10;100.00
58385;BME280;44185;47.844;8.966;2023-10-19T12:05:17;94243.28;;;13.02;100.00
58385;BME280;44185;47.844;8.966;2023-10-19T12:07:43;94247.16;;;13.06;100.00
58385;BME280;44185;47.844;8.966;2023-10-19T12:10:10;94236.91;;;12.96;100.00
58385;BME280;44185;47.844;8.966;2023-10-19T12:12:36;94239.00;;;13.08;100.00
58385;BME280;44185;47.844;8.966;2023-10-19T12:15:03;94241.66;;;13.08;100.00
58385;BME280;44185;47.844;8.966;2023-10-19T12:17:28;94239.00;;;13.08;100.00
58385;BME280;44185;47.844;8.966;2023-10-19T12:19:54;94241.06;;;13.06;100.00
58385;BME280;44185;47.844;8.966;2023-10-19T12:22:19;94236.34;;;13.08;100.00
58385;BME280;44185;47.844;8.966;2023-10-19T12:24:44;94253.91;;;13.09;100.00
58385;BME280;44185;47.844;8.966;2023-10-19T12:27:11;94246.41;;;13.19;100.00
58385;BME280;44185;47.844;8.966;2023-10-19T12:29:37;94256.78;;;13.14;100.00
58385;BME280;44185;47.844;8.966;2023-10-19T12:32:03;94259.72;;;13.26;100.00
58385;BME280;44185;47.844;8.966;2023-10-19T12:34:28;94258.28;;;13.30;100.00
58385;BME280;44185;47.844;8.966;2023-10-19T12:36:54;94248.53;;;13.51;100.00
58385;BME280;44185;47.844;8.966;2023-10-19T12:39:19;94233.69;;;13.71;100.00
58385;BME280;44185;47.844;8.966;2023-10-19T12:41:45;94225.94;;;13.76;100.00
58385;BME280;44185;47.844;8.966;2023-10-19T12:44:11;94223.91;;;13.78;100.00
58385;BME280;44185;47.844;8.966;2023-10-19T12:46:37;94232.91;;;13.84;100.00
58385;BME280;44185;47.844;8.966;2023-10-19T12:49:04;94225.56;;;13.93;100.00
58385;BME280;44185;47.844;8.966;2023-10-19T12:51:29;94223.50;;;13.95;100.00